sensor_id;sensor_type;location;lat;lon;timestamp;P1;durP1;ratioP1;P2;durP2;ratioP2
69410;SDS011;56604;48.652;9.194;2022-07-31T00:02:18;3.80;;;3.50;;
69410;SDS011;56604;48.652;9.194;2022-07-31T00:04:44;6.23;;;4.23;;
69410;SDS011;56604;48.652;9.194;2022-07-31T00:07:09;4.20;;;3.80;;
69410;SDS011;56604;48.652;9.194;2022-07-31T00:09:35;5.07;;;4.10;;
69410;SDS011;56604;48.652;9.194;2022-07-31T00:12:01;3.70;;;3.40;;
69410;SDS011;56604;48.652;9.194;2022-07-31T00:14:27;10.00;;;4.10;;
69410;SDS011;56604;48.652;9.194;2022-07-31T00:16:53;13.77;;;4.00;;
69410;SDS011;56604;48.652;9.194;2022-07-31T00:19:18;6.90;;;3.93;;
69410;SDS011;56604;48.652;9.194;2022-07-31T00:21:44;14.53;;;3.50;;
69410;SDS011;56604;48.652;9.194;2022-07-31T00:24:09;4.03;;;3.63;;
69410;SDS011;56604;48.652;9.194;2022-07-31T00:26:34;3.80;;;3.50;;
69410;SDS011;56604;48.652;9.194;2022-07-31T00:29:00;3.90;;;3.60;;
69410;SDS011;56604;48.652;9.194;2022-07-31T00:31:25;6.93;;;3.87;;
69410;SDS011;56604;48.652;9.194;2022-07-31T00:33:50;3.87;;;3.57;;
69410;SDS011;56604;48.652;9.194;2022-07-31T00:36:16;7.13;;;3.90;;
69410;SDS011;56604;48.652;9.194;2022-07-31T00:38:41;19.53;;;3.87;;
69410;SDS011;56604;48.652;9.194;2022-07-31T00:41:06;11.90;;;4.10;;
69410;SDS011;56604;48.652;9.194;2022-07-31T00:43:32;5.97;;;4.40;;
69410;SDS011;56604;48.652;9.194;2022-07-31T00:45:57;4.07;;;3.77;;
69410;SDS011;56604;48.652;9.194;2022-07-31T00:48:23;9.33;;;3.73;;
69410;SDS011;56604;48.652;9.194;2022-07-31T00:50:49;9.13;;;3.63;;
69410;SDS011;56604;48.652;9.194;2022-07-31T00:53:15;6.20;;;4.07;;
69410;SDS011;56604;48.652;9.194;2022-07-31T00:55:40;5.30;;;3.57;;
69410;SDS011;56604;48.652;9.194;2022-07-31T00:58:05;6.97;;;3.80;;
69410;SDS011;56604;48.652;9.194;2022-07-31T01:00:31;4.30;;;3.73;;
69410;SDS011;56604;48.652;9.194;2022-07-31T01:02:56;4.17;;;3.87;;
69410;SDS011;56604;48.652;9.194;2022-07-31T01:05:22;9.63;;;4.57;;
69410;SDS011;56604;48.652;9.194;2022-07-31T01:07:47;5.33;;;4.20;;
69410;SDS011;56604;48.652;9.194;2022-07-31T01:10:16;6.33;;;4.77;;
69410;SDS011;56604;48.652;9.194;2022-07-31T01:12:51;6.60;;;5.00;;
69410;SDS011;56604;48.652;9.194;2022-07-31T01:15:23;7.27;;;5.00;;
69410;SDS011;56604;48.652;9.194;2022-07-31T01:17:50;5.83;;;5.23;;
69410;SDS011;56604;48.652;9.194;2022-07-31T01:20:16;8.93;;;5.43;;
69410;SDS011;56604;48.652;9.194;2022-07-31T01:25:39;5.87;;;4.63;;
69410;SDS011;56604;48.652;9.194;2022-07-31T01:30:57;4.57;;;4.00;;
69410;SDS011;56604;48.652;9.194;2022-07-31T01:33:29;5.00;;;4.10;;
69410;SDS011;56604;48.652;9.194;2022-07-31T01:36:08;8.13;;;4.77;;
69410;SDS011;56604;48.652;9.194;2022-07-31T01:38:39;4.87;;;4.00;;
69410;SDS011;56604;48.652;9.194;2022-07-31T01:41:09;4.93;;;4.50;;
69410;SDS011;56604;48.652;9.194;2022-07-31T01:43:37;5.03;;;4.53;;
69410;SDS011;56604;48.652;9.194;2022-07-31T01:46:04;4.80;;;4.40;;
69410;SDS011;56604;48.652;9.194;2022-07-31T01:48:33;5.67;;;4.37;;
69410;SDS011;56604;48.652;9.194;2022-07-31T01:51:00;8.10;;;4.23;;
69410;SDS011;56604;48.652;9.194;2022-07-31T01:53:27;5.13;;;4.33;;
69410;SDS011;56604;48.652;9.194;2022-07-31T01:55:55;5.57;;;4.10;;
69410;SDS011;56604;48.652;9.194;2022-07-31T01:58:22;7.33;;;4.17;;
69410;SDS011;56604;48.652;9.194;2022-07-31T02:00:50;4.33;;;4.00;;
69410;SDS011;56604;48.652;9.194;2022-07-31T02:03:18;5.43;;;4.83;;
69410;SDS011;56604;48.652;9.194;2022-07-31T02:05:44;5.50;;;4.00;;
69410;SDS011;56604;48.652;9.194;2022-07-31T02:08:11;6.27;;;4.33;;
69410;SDS011;56604;48.652;9.194;2022-07-31T02:10:39;7.03;;;4.43;;
69410;SDS011;56604;48.652;9.194;2022-07-31T02:13:04;4.70;;;4.30;;
69410;SDS011;56604;48.652;9.194;2022-07-31T02:15:31;7.03;;;4.80;;
69410;SDS011;56604;48.652;9.194;2022-07-31T02:17:57;7.50;;;4.77;;
69410;SDS011;56604;48.652;9.194;2022-07-31T02:20:25;5.17;;;4.67;;
69410;SDS011;56604;48.652;9.194;2022-07-31T02:22:52;4.97;;;4.47;;
69410;SDS011;56604;48.652;9.194;2022-07-31T02:25:18;8.80;;;5.00;;
69410;SDS011;56604;48.652;9.194;2022-07-31T02:27:43;5.57;;;4.40;;
69410;SDS011;56604;48.652;9.194;2022-07-31T02:30:09;4.97;;;4.60;;
69410;SDS011;56604;48.652;9.194;2022-07-31T02:32:35;4.33;;;3.93;;
69410;SDS011;56604;48.652;9.194;2022-07-31T02:35:02;4.17;;;3.87;;
69410;SDS011;56604;48.652;9.194;2022-07-31T02:37:30;4.60;;;4.20;;
69410;SDS011;56604;48.652;9.194;2022-07-31T02:39:57;7.53;;;4.53;;
69410;SDS011;56604;48.652;9.194;2022-07-31T02:42:25;6.33;;;4.13;;
69410;SDS011;56604;48.652;9.194;2022-07-31T02:44:52;6.37;;;4.50;;
69410;SDS011;56604;48.652;9.194;2022-07-31T02:47:18;4.57;;;4.17;;
69410;SDS011;56604;48.652;9.194;2022-07-31T02:49:44;4.80;;;4.40;;
69410;SDS011;56604;48.652;9.194;2022-07-31T02:52:10;6.60;;;4.97;;
69410;SDS011;56604;48.652;9.194;2022-07-31T02:54:37;5.10;;;4.60;;
69410;SDS011;56604;48.652;9.194;2022-07-31T02:57:04;5.00;;;4.20;;
69410;SDS011;56604;48.652;9.194;2022-07-31T02:59:30;13.20;;;4.60;;
69410;SDS011;56604;48.652;9.194;2022-07-31T03:01:56;7.53;;;4.73;;
69410;SDS011;56604;48.652;9.194;2022-07-31T03:04:22;7.10;;;5.00;;
69410;SDS011;56604;48.652;9.194;2022-07-31T03:06:47;7.77;;;4.20;;
69410;SDS011;56604;48.652;9.194;2022-07-31T03:09:16;6.10;;;4.80;;
69410;SDS011;56604;48.652;9.194;2022-07-31T03:11:41;5.33;;;4.83;;
69410;SDS011;56604;48.652;9.194;2022-07-31T03:14:07;9.77;;;4.47;;
69410;SDS011;56604;48.652;9.194;2022-07-31T03:16:34;7.43;;;4.60;;
69410;SDS011;56604;48.652;9.194;2022-07-31T03:19:01;5.30;;;4.30;;
69410;SDS011;56604;48.652;9.194;2022-07-31T03:21:28;4.30;;;4.00;;
69410;SDS011;56604;48.652;9.194;2022-07-31T03:23:54;4.83;;;4.20;;
69410;SDS011;56604;48.652;9.194;2022-07-31T03:26:20;4.70;;;3.93;;
69410;SDS011;56604;48.652;9.194;2022-07-31T03:28:46;4.83;;;4.40;;
69410;SDS011;56604;48.652;9.194;2022-07-31T03:31:11;5.63;;;4.20;;
69410;SDS011;56604;48.652;9.194;2022-07-31T03:33:37;6.77;;;4.37;;
69410;SDS011;56604;48.652;9.194;2022-07-31T03:36:02;4.63;;;4.20;;
69410;SDS011;56604;48.652;9.194;2022-07-31T03:38:28;5.50;;;4.67;;
69410;SDS011;56604;48.652;9.194;2022-07-31T03:40:53;10.27;;;4.00;;
69410;SDS011;56604;48.652;9.194;2022-07-31T03:43:19;7.30;;;4.30;;
69410;SDS011;56604;48.652;9.194;2022-07-31T03:45:45;4.50;;;3.67;;
69410;SDS011;56604;48.652;9.194;2022-07-31T03:48:11;4.67;;;3.80;;
69410;SDS011;56604;48.652;9.194;2022-07-31T03:50:37;4.53;;;4.13;;
69410;SDS011;56604;48.652;9.194;2022-07-31T03:53:05;4.90;;;4.50;;
69410;SDS011;56604;48.652;9.194;2022-07-31T03:55:31;8.40;;;3.97;;
69410;SDS011;56604;48.652;9.194;2022-07-31T03:57:59;4.20;;;3.80;;
69410;SDS011;56604;48.652;9.194;2022-07-31T04:00:26;8.80;;;3.87;;
69410;SDS011;56604;48.652;9.194;2022-07-31T04:02:55;4.20;;;3.77;;
69410;SDS011;56604;48.652;9.194;2022-07-31T04:05:22;3.93;;;3.63;;
69410;SDS011;56604;48.652;9.194;2022-07-31T04:07:48;4.83;;;3.60;;
69410;SDS011;56604;48.652;9.194;2022-07-31T04:10:14;5.57;;;3.50;;
69410;SDS011;56604;48.652;9.194;2022-07-31T04:12:40;7.93;;;3.70;;
69410;SDS011;56604;48.652;9.194;2022-07-31T04:15:05;5.47;;;3.53;;
69410;SDS011;56604;48.652;9.194;2022-07-31T04:17:31;5.17;;;3.60;;
69410;SDS011;56604;48.652;9.194;2022-07-31T04:19:56;3.70;;;3.40;;
69410;SDS011;56604;48.652;9.194;2022-07-31T04:22:21;6.83;;;3.60;;
69410;SDS011;56604;48.652;9.194;2022-07-31T04:24:47;3.97;;;3.67;;
69410;SDS011;56604;48.652;9.194;2022-07-31T04:27:14;5.80;;;3.67;;
69410;SDS011;56604;48.652;9.194;2022-07-31T04:29:41;5.63;;;3.30;;
69410;SDS011;56604;48.652;9.194;2022-07-31T04:32:07;4.47;;;3.23;;
69410;SDS011;56604;48.652;9.194;2022-07-31T04:34:33;3.30;;;3.10;;
69410;SDS011;56604;48.652;9.194;2022-07-31T04:36:58;7.73;;;3.63;;
69410;SDS011;56604;48.652;9.194;2022-07-31T04:39:23;3.30;;;3.10;;
69410;SDS011;56604;48.652;9.194;2022-07-31T04:41:49;3.37;;;3.10;;
69410;SDS011;56604;48.652;9.194;2022-07-31T04:44:14;4.57;;;3.07;;
69410;SDS011;56604;48.652;9.194;2022-07-31T04:46:39;4.77;;;2.83;;
69410;SDS011;56604;48.652;9.194;2022-07-31T04:49:07;4.83;;;3.40;;
69410;SDS011;56604;48.652;9.194;2022-07-31T04:51:32;8.40;;;2.80;;
69410;SDS011;56604;48.652;9.194;2022-07-31T04:53:58;5.30;;;2.80;;
69410;SDS011;56604;48.652;9.194;2022-07-31T04:56:23;5.73;;;3.00;;
69410;SDS011;56604;48.652;9.194;2022-07-31T04:59:00;5.03;;;2.83;;
69410;SDS011;56604;48.652;9.194;2022-07-31T05:01:27;5.20;;;2.90;;
69410;SDS011;56604;48.652;9.194;2022-07-31T05:03:52;2.87;;;2.67;;
69410;SDS011;56604;48.652;9.194;2022-07-31T05:06:18;3.93;;;2.60;;
69410;SDS011;56604;48.652;9.194;2022-07-31T05:08:43;4.73;;;2.63;;
69410;SDS011;56604;48.652;9.194;2022-07-31T05:11:08;3.40;;;2.97;;
69410;SDS011;56604;48.652;9.194;2022-07-31T05:13:50;4.83;;;2.50;;
69410;SDS011;56604;48.652;9.194;2022-07-31T05:16:17;4.13;;;2.97;;
69410;SDS011;56604;48.652;9.194;2022-07-31T05:18:43;7.00;;;2.90;;
69410;SDS011;56604;48.652;9.194;2022-07-31T05:21:12;4.10;;;2.63;;
69410;SDS011;56604;48.652;9.194;2022-07-31T05:23:42;3.03;;;2.83;;
69410;SDS011;56604;48.652;9.194;2022-07-31T05:26:09;8.30;;;2.80;;
69410;SDS011;56604;48.652;9.194;2022-07-31T05:28:35;11.97;;;3.60;;
69410;SDS011;56604;48.652;9.194;2022-07-31T05:31:02;2.90;;;2.70;;
69410;SDS011;56604;48.652;9.194;2022-07-31T05:33:28;3.20;;;2.97;;
69410;SDS011;56604;48.652;9.194;2022-07-31T05:35:54;5.27;;;3.53;;
69410;SDS011;56604;48.652;9.194;2022-07-31T05:38:20;4.60;;;3.13;;
69410;SDS011;56604;48.652;9.194;2022-07-31T05:40:47;3.70;;;3.00;;
69410;SDS011;56604;48.652;9.194;2022-07-31T05:43:12;7.87;;;2.93;;
69410;SDS011;56604;48.652;9.194;2022-07-31T05:45:38;4.30;;;3.30;;
69410;SDS011;56604;48.652;9.194;2022-07-31T05:48:04;5.33;;;3.13;;
69410;SDS011;56604;48.652;9.194;2022-07-31T05:50:29;4.33;;;3.10;;
69410;SDS011;56604;48.652;9.194;2022-07-31T05:52:55;4.47;;;3.10;;
69410;SDS011;56604;48.652;9.194;2022-07-31T05:55:20;3.20;;;3.00;;
69410;SDS011;56604;48.652;9.194;2022-07-31T05:57:46;3.40;;;3.10;;
69410;SDS011;56604;48.652;9.194;2022-07-31T06:00:12;6.10;;;3.03;;
69410;SDS011;56604;48.652;9.194;2022-07-31T06:02:38;3.67;;;3.00;;
69410;SDS011;56604;48.652;9.194;2022-07-31T06:05:03;8.53;;;2.50;;
69410;SDS011;56604;48.652;9.194;2022-07-31T06:07:29;4.03;;;3.10;;
69410;SDS011;56604;48.652;9.194;2022-07-31T06:09:55;3.30;;;3.00;;
69410;SDS011;56604;48.652;9.194;2022-07-31T06:12:20;4.20;;;2.90;;
69410;SDS011;56604;48.652;9.194;2022-07-31T06:14:46;3.80;;;3.13;;
69410;SDS011;56604;48.652;9.194;2022-07-31T06:17:11;8.90;;;3.40;;
69410;SDS011;56604;48.652;9.194;2022-07-31T06:19:36;3.70;;;3.30;;
69410;SDS011;56604;48.652;9.194;2022-07-31T06:22:02;3.40;;;3.10;;
69410;SDS011;56604;48.652;9.194;2022-07-31T06:24:28;5.50;;;2.70;;
69410;SDS011;56604;48.652;9.194;2022-07-31T06:26:57;3.20;;;3.00;;
69410;SDS011;56604;48.652;9.194;2022-07-31T06:29:23;3.67;;;2.80;;
69410;SDS011;56604;48.652;9.194;2022-07-31T06:31:48;8.20;;;3.20;;
69410;SDS011;56604;48.652;9.194;2022-07-31T06:34:13;3.37;;;3.10;;
69410;SDS011;56604;48.652;9.194;2022-07-31T06:36:39;3.27;;;3.07;;
69410;SDS011;56604;48.652;9.194;2022-07-31T06:39:04;5.23;;;3.20;;
69410;SDS011;56604;48.652;9.194;2022-07-31T06:41:29;7.63;;;2.80;;
69410;SDS011;56604;48.652;9.194;2022-07-31T06:44:13;4.67;;;2.93;;
69410;SDS011;56604;48.652;9.194;2022-07-31T06:46:43;3.87;;;2.83;;
69410;SDS011;56604;48.652;9.194;2022-07-31T06:49:09;3.30;;;3.10;;
69410;SDS011;56604;48.652;9.194;2022-07-31T06:51:34;4.37;;;2.80;;
69410;SDS011;56604;48.652;9.194;2022-07-31T06:54:00;2.70;;;2.50;;
69410;SDS011;56604;48.652;9.194;2022-07-31T06:56:27;4.40;;;2.90;;
69410;SDS011;56604;48.652;9.194;2022-07-31T06:58:53;3.47;;;3.17;;
69410;SDS011;56604;48.652;9.194;2022-07-31T07:01:19;7.50;;;3.43;;
69410;SDS011;56604;48.652;9.194;2022-07-31T07:03:44;10.40;;;3.30;;
69410;SDS011;56604;48.652;9.194;2022-07-31T07:06:10;3.00;;;2.77;;
69410;SDS011;56604;48.652;9.194;2022-07-31T07:08:35;4.77;;;3.57;;
69410;SDS011;56604;48.652;9.194;2022-07-31T07:11:01;5.33;;;2.93;;
69410;SDS011;56604;48.652;9.194;2022-07-31T07:13:26;4.13;;;2.87;;
69410;SDS011;56604;48.652;9.194;2022-07-31T07:15:51;4.17;;;2.97;;
69410;SDS011;56604;48.652;9.194;2022-07-31T07:18:17;6.10;;;3.33;;
69410;SDS011;56604;48.652;9.194;2022-07-31T07:20:42;3.50;;;3.10;;
69410;SDS011;56604;48.652;9.194;2022-07-31T07:23:08;3.30;;;2.90;;
69410;SDS011;56604;48.652;9.194;2022-07-31T07:25:33;6.30;;;3.20;;
69410;SDS011;56604;48.652;9.194;2022-07-31T07:27:58;4.33;;;3.10;;
69410;SDS011;56604;48.652;9.194;2022-07-31T07:30:24;2.80;;;2.60;;
69410;SDS011;56604;48.652;9.194;2022-07-31T07:32:52;4.93;;;2.90;;
69410;SDS011;56604;48.652;9.194;2022-07-31T07:35:18;2.43;;;2.33;;
69410;SDS011;56604;48.652;9.194;2022-07-31T07:37:43;2.40;;;2.13;;
69410;SDS011;56604;48.652;9.194;2022-07-31T07:40:08;2.57;;;2.37;;
69410;SDS011;56604;48.652;9.194;2022-07-31T07:42:34;2.13;;;2.03;;
69410;SDS011;56604;48.652;9.194;2022-07-31T07:44:59;2.30;;;2.20;;
69410;SDS011;56604;48.652;9.194;2022-07-31T07:47:25;2.13;;;2.03;;
69410;SDS011;56604;48.652;9.194;2022-07-31T07:49:50;3.72;;;2.42;;
69410;SDS011;56604;48.652;9.194;2022-07-31T07:52:16;2.03;;;1.98;;
69410;SDS011;56604;48.652;9.194;2022-07-31T07:54:41;2.77;;;2.57;;
69410;SDS011;56604;48.652;9.194;2022-07-31T07:57:07;4.03;;;2.60;;
69410;SDS011;56604;48.652;9.194;2022-07-31T07:59:33;3.53;;;2.23;;
69410;SDS011;56604;48.652;9.194;2022-07-31T08:01:59;2.77;;;2.67;;
69410;SDS011;56604;48.652;9.194;2022-07-31T08:04:25;4.57;;;2.83;;
69410;SDS011;56604;48.652;9.194;2022-07-31T08:06:50;2.87;;;2.60;;
69410;SDS011;56604;48.652;9.194;2022-07-31T08:09:15;2.60;;;2.50;;
69410;SDS011;56604;48.652;9.194;2022-07-31T08:11:41;2.40;;;2.20;;
69410;SDS011;56604;48.652;9.194;2022-07-31T08:14:06;2.47;;;2.30;;
69410;SDS011;56604;48.652;9.194;2022-07-31T08:16:31;2.50;;;2.40;;
69410;SDS011;56604;48.652;9.194;2022-07-31T08:18:57;2.20;;;2.10;;
69410;SDS011;56604;48.652;9.194;2022-07-31T08:21:22;2.80;;;2.60;;
69410;SDS011;56604;48.652;9.194;2022-07-31T08:23:48;2.23;;;2.13;;
69410;SDS011;56604;48.652;9.194;2022-07-31T08:26:13;5.10;;;2.40;;
69410;SDS011;56604;48.652;9.194;2022-07-31T08:28:39;2.40;;;2.30;;
69410;SDS011;56604;48.652;9.194;2022-07-31T08:31:05;3.63;;;2.40;;
69410;SDS011;56604;48.652;9.194;2022-07-31T08:33:31;8.07;;;2.20;;
69410;SDS011;56604;48.652;9.194;2022-07-31T08:35:57;8.30;;;2.33;;
69410;SDS011;56604;48.652;9.194;2022-07-31T08:38:22;3.50;;;2.50;;
69410;SDS011;56604;48.652;9.194;2022-07-31T08:40:48;2.50;;;2.40;;
69410;SDS011;56604;48.652;9.194;2022-07-31T08:43:13;3.10;;;2.30;;
69410;SDS011;56604;48.652;9.194;2022-07-31T08:45:39;2.37;;;2.27;;
69410;SDS011;56604;48.652;9.194;2022-07-31T08:48:06;3.73;;;3.03;;
69410;SDS011;56604;48.652;9.194;2022-07-31T08:50:33;4.73;;;2.50;;
69410;SDS011;56604;48.652;9.194;2022-07-31T08:53:02;6.57;;;2.43;;
69410;SDS011;56604;48.652;9.194;2022-07-31T08:55:29;2.70;;;2.50;;
69410;SDS011;56604;48.652;9.194;2022-07-31T08:57:56;2.40;;;2.30;;
69410;SDS011;56604;48.652;9.194;2022-07-31T09:00:21;3.20;;;2.70;;
69410;SDS011;56604;48.652;9.194;2022-07-31T09:02:47;2.67;;;2.57;;
69410;SDS011;56604;48.652;9.194;2022-07-31T09:05:13;3.63;;;2.40;;
69410;SDS011;56604;48.652;9.194;2022-07-31T09:07:40;3.33;;;2.20;;
69410;SDS011;56604;48.652;9.194;2022-07-31T09:10:06;2.40;;;2.30;;
69410;SDS011;56604;48.652;9.194;2022-07-31T09:12:32;2.60;;;2.40;;
69410;SDS011;56604;48.652;9.194;2022-07-31T09:14:58;2.50;;;2.30;;
69410;SDS011;56604;48.652;9.194;2022-07-31T09:17:30;3.63;;;2.40;;
69410;SDS011;56604;48.652;9.194;2022-07-31T09:19:57;4.60;;;2.30;;
69410;SDS011;56604;48.652;9.194;2022-07-31T09:22:25;7.10;;;2.70;;
69410;SDS011;56604;48.652;9.194;2022-07-31T09:24:53;5.27;;;2.47;;
69410;SDS011;56604;48.652;9.194;2022-07-31T09:27:29;2.33;;;2.23;;
69410;SDS011;56604;48.652;9.194;2022-07-31T09:29:55;2.50;;;2.40;;
69410;SDS011;56604;48.652;9.194;2022-07-31T09:32:21;3.27;;;2.50;;
69410;SDS011;56604;48.652;9.194;2022-07-31T09:34:47;4.47;;;2.43;;
69410;SDS011;56604;48.652;9.194;2022-07-31T09:37:14;2.50;;;2.37;;
69410;SDS011;56604;48.652;9.194;2022-07-31T09:39:40;2.80;;;2.60;;
69410;SDS011;56604;48.652;9.194;2022-07-31T09:42:12;6.80;;;2.57;;
69410;SDS011;56604;48.652;9.194;2022-07-31T09:44:38;3.07;;;2.20;;
69410;SDS011;56604;48.652;9.194;2022-07-31T09:47:27;2.63;;;2.47;;
69410;SDS011;56604;48.652;9.194;2022-07-31T09:49:55;5.93;;;3.00;;
69410;SDS011;56604;48.652;9.194;2022-07-31T09:52:22;2.20;;;2.10;;
69410;SDS011;56604;48.652;9.194;2022-07-31T09:54:59;3.00;;;2.40;;
69410;SDS011;56604;48.652;9.194;2022-07-31T09:57:29;3.47;;;2.43;;
69410;SDS011;56604;48.652;9.194;2022-07-31T09:59:55;2.73;;;2.53;;
69410;SDS011;56604;48.652;9.194;2022-07-31T10:02:20;2.60;;;2.40;;
69410;SDS011;56604;48.652;9.194;2022-07-31T10:04:49;3.03;;;2.70;;
69410;SDS011;56604;48.652;9.194;2022-07-31T10:07:17;6.30;;;2.67;;
69410;SDS011;56604;48.652;9.194;2022-07-31T10:09:43;3.30;;;2.23;;
69410;SDS011;56604;48.652;9.194;2022-07-31T10:12:15;2.10;;;2.00;;
69410;SDS011;56604;48.652;9.194;2022-07-31T10:14:43;2.50;;;2.27;;
69410;SDS011;56604;48.652;9.194;2022-07-31T10:17:10;4.63;;;2.40;;
69410;SDS011;56604;48.652;9.194;2022-07-31T10:19:39;2.00;;;1.90;;
69410;SDS011;56604;48.652;9.194;2022-07-31T10:22:06;2.40;;;2.20;;
69410;SDS011;56604;48.652;9.194;2022-07-31T10:24:35;2.53;;;2.20;;
69410;SDS011;56604;48.652;9.194;2022-07-31T10:27:09;2.13;;;1.77;;
69410;SDS011;56604;48.652;9.194;2022-07-31T10:29:36;8.50;;;2.20;;
69410;SDS011;56604;48.652;9.194;2022-07-31T10:32:06;2.03;;;1.93;;
69410;SDS011;56604;48.652;9.194;2022-07-31T10:34:32;12.10;;;2.20;;
69410;SDS011;56604;48.652;9.194;2022-07-31T10:45:12;4.73;;;2.30;;
69410;SDS011;56604;48.652;9.194;2022-07-31T10:47:38;5.63;;;2.20;;
69410;SDS011;56604;48.652;9.194;2022-07-31T10:50:04;3.33;;;1.70;;
69410;SDS011;56604;48.652;9.194;2022-07-31T10:52:32;3.63;;;2.00;;
69410;SDS011;56604;48.652;9.194;2022-07-31T10:55:00;7.43;;;1.93;;
69410;SDS011;56604;48.652;9.194;2022-07-31T10:57:30;5.77;;;2.40;;
69410;SDS011;56604;48.652;9.194;2022-07-31T11:00:07;2.30;;;2.10;;
69410;SDS011;56604;48.652;9.194;2022-07-31T11:02:35;3.13;;;2.10;;
69410;SDS011;56604;48.652;9.194;2022-07-31T11:05:08;3.07;;;2.30;;
69410;SDS011;56604;48.652;9.194;2022-07-31T11:07:38;2.20;;;1.90;;
69410;SDS011;56604;48.652;9.194;2022-07-31T11:10:09;2.20;;;2.00;;
69410;SDS011;56604;48.652;9.194;2022-07-31T11:12:34;2.23;;;2.03;;
69410;SDS011;56604;48.652;9.194;2022-07-31T11:15:00;3.70;;;2.20;;
69410;SDS011;56604;48.652;9.194;2022-07-31T11:17:29;3.33;;;2.00;;
69410;SDS011;56604;48.652;9.194;2022-07-31T11:20:00;2.00;;;1.80;;
69410;SDS011;56604;48.652;9.194;2022-07-31T11:22:26;1.70;;;1.60;;
69410;SDS011;56604;48.652;9.194;2022-07-31T11:24:53;4.33;;;2.00;;
69410;SDS011;56604;48.652;9.194;2022-07-31T11:27:28;3.77;;;2.20;;
69410;SDS011;56604;48.652;9.194;2022-07-31T11:30:04;2.47;;;2.37;;
69410;SDS011;56604;48.652;9.194;2022-07-31T11:32:30;5.50;;;2.67;;
69410;SDS011;56604;48.652;9.194;2022-07-31T11:34:56;2.00;;;1.90;;
69410;SDS011;56604;48.652;9.194;2022-07-31T11:37:22;3.27;;;2.20;;
69410;SDS011;56604;48.652;9.194;2022-07-31T11:39:48;2.10;;;1.90;;
69410;SDS011;56604;48.652;9.194;2022-07-31T11:42:17;2.10;;;2.00;;
69410;SDS011;56604;48.652;9.194;2022-07-31T11:44:43;2.20;;;2.10;;
69410;SDS011;56604;48.652;9.194;2022-07-31T11:47:09;2.60;;;1.77;;
69410;SDS011;56604;48.652;9.194;2022-07-31T11:49:34;2.60;;;1.80;;
69410;SDS011;56604;48.652;9.194;2022-07-31T11:52:01;2.70;;;1.77;;
69410;SDS011;56604;48.652;9.194;2022-07-31T11:54:29;2.03;;;1.93;;
69410;SDS011;56604;48.652;9.194;2022-07-31T11:56:54;1.73;;;1.63;;
69410;SDS011;56604;48.652;9.194;2022-07-31T11:59:33;1.97;;;1.90;;
69410;SDS011;56604;48.652;9.194;2022-07-31T12:04:30;6.53;;;2.63;;
69410;SDS011;56604;48.652;9.194;2022-07-31T12:06:56;2.40;;;2.30;;
69410;SDS011;56604;48.652;9.194;2022-07-31T12:09:22;5.70;;;2.20;;
69410;SDS011;56604;48.652;9.194;2022-07-31T12:11:48;2.63;;;2.07;;
69410;SDS011;56604;48.652;9.194;2022-07-31T12:14:14;3.77;;;1.90;;
69410;SDS011;56604;48.652;9.194;2022-07-31T12:16:40;2.43;;;2.23;;
69410;SDS011;56604;48.652;9.194;2022-07-31T12:19:05;4.73;;;2.03;;
69410;SDS011;56604;48.652;9.194;2022-07-31T12:21:35;5.00;;;2.23;;
69410;SDS011;56604;48.652;9.194;2022-07-31T12:24:08;2.40;;;2.17;;
69410;SDS011;56604;48.652;9.194;2022-07-31T12:26:34;2.07;;;1.90;;
69410;SDS011;56604;48.652;9.194;2022-07-31T12:31:30;4.30;;;2.07;;
69410;SDS011;56604;48.652;9.194;2022-07-31T12:34:08;3.00;;;2.20;;
69410;SDS011;56604;48.652;9.194;2022-07-31T12:36:33;2.50;;;2.30;;
69410;SDS011;56604;48.652;9.194;2022-07-31T12:38:59;2.50;;;2.30;;
69410;SDS011;56604;48.652;9.194;2022-07-31T12:41:27;5.53;;;2.23;;
69410;SDS011;56604;48.652;9.194;2022-07-31T12:43:53;1.93;;;1.83;;
69410;SDS011;56604;48.652;9.194;2022-07-31T12:46:19;4.80;;;1.97;;
69410;SDS011;56604;48.652;9.194;2022-07-31T12:48:45;1.90;;;1.80;;
69410;SDS011;56604;48.652;9.194;2022-07-31T12:51:10;2.20;;;2.00;;
69410;SDS011;56604;48.652;9.194;2022-07-31T12:53:36;3.40;;;2.20;;
69410;SDS011;56604;48.652;9.194;2022-07-31T12:56:01;2.00;;;1.90;;
69410;SDS011;56604;48.652;9.194;2022-07-31T12:58:26;2.37;;;2.20;;
69410;SDS011;56604;48.652;9.194;2022-07-31T13:00:52;2.33;;;2.27;;
69410;SDS011;56604;48.652;9.194;2022-07-31T13:03:18;2.20;;;2.10;;
69410;SDS011;56604;48.652;9.194;2022-07-31T13:05:44;4.10;;;2.30;;
69410;SDS011;56604;48.652;9.194;2022-07-31T13:08:09;2.27;;;2.07;;
69410;SDS011;56604;48.652;9.194;2022-07-31T13:10:35;3.97;;;2.50;;
69410;SDS011;56604;48.652;9.194;2022-07-31T13:13:00;2.23;;;2.13;;
69410;SDS011;56604;48.652;9.194;2022-07-31T13:15:26;2.23;;;2.03;;
69410;SDS011;56604;48.652;9.194;2022-07-31T13:17:55;2.07;;;1.97;;
69410;SDS011;56604;48.652;9.194;2022-07-31T13:20:21;2.70;;;2.00;;
69410;SDS011;56604;48.652;9.194;2022-07-31T13:22:46;3.00;;;1.80;;
69410;SDS011;56604;48.652;9.194;2022-07-31T13:25:12;2.13;;;2.03;;
69410;SDS011;56604;48.652;9.194;2022-07-31T13:27:38;1.90;;;1.80;;
69410;SDS011;56604;48.652;9.194;2022-07-31T13:30:04;2.27;;;2.17;;
69410;SDS011;56604;48.652;9.194;2022-07-31T13:32:30;2.27;;;2.17;;
69410;SDS011;56604;48.652;9.194;2022-07-31T13:34:56;2.40;;;2.20;;
69410;SDS011;56604;48.652;9.194;2022-07-31T13:37:22;4.73;;;2.07;;
69410;SDS011;56604;48.652;9.194;2022-07-31T13:39:47;2.10;;;1.93;;
69410;SDS011;56604;48.652;9.194;2022-07-31T13:42:12;3.50;;;2.23;;
69410;SDS011;56604;48.652;9.194;2022-07-31T13:44:38;3.00;;;2.10;;
69410;SDS011;56604;48.652;9.194;2022-07-31T13:47:03;6.03;;;2.30;;
69410;SDS011;56604;48.652;9.194;2022-07-31T13:49:28;2.83;;;2.00;;
69410;SDS011;56604;48.652;9.194;2022-07-31T13:51:56;2.17;;;2.07;;
69410;SDS011;56604;48.652;9.194;2022-07-31T13:54:23;2.80;;;2.10;;
69410;SDS011;56604;48.652;9.194;2022-07-31T13:56:48;2.00;;;1.90;;
69410;SDS011;56604;48.652;9.194;2022-07-31T13:59:14;9.70;;;2.07;;
69410;SDS011;56604;48.652;9.194;2022-07-31T14:01:40;3.17;;;2.13;;
69410;SDS011;56604;48.652;9.194;2022-07-31T14:04:06;3.77;;;2.50;;
69410;SDS011;56604;48.652;9.194;2022-07-31T14:06:31;4.43;;;2.20;;
69410;SDS011;56604;48.652;9.194;2022-07-31T14:08:57;2.20;;;2.10;;
69410;SDS011;56604;48.652;9.194;2022-07-31T14:11:22;2.00;;;1.90;;
69410;SDS011;56604;48.652;9.194;2022-07-31T14:13:47;6.27;;;2.00;;
69410;SDS011;56604;48.652;9.194;2022-07-31T14:16:13;2.23;;;2.13;;
69410;SDS011;56604;48.652;9.194;2022-07-31T14:18:38;4.10;;;2.20;;
69410;SDS011;56604;48.652;9.194;2022-07-31T14:21:07;2.67;;;2.47;;
69410;SDS011;56604;48.652;9.194;2022-07-31T14:23:32;3.70;;;2.00;;
69410;SDS011;56604;48.652;9.194;2022-07-31T14:25:58;3.17;;;2.47;;
69410;SDS011;56604;48.652;9.194;2022-07-31T14:28:23;2.37;;;2.13;;
69410;SDS011;56604;48.652;9.194;2022-07-31T14:30:51;1.80;;;1.73;;
69410;SDS011;56604;48.652;9.194;2022-07-31T14:33:16;1.50;;;1.50;;
69410;SDS011;56604;48.652;9.194;2022-07-31T14:35:42;3.50;;;1.97;;
69410;SDS011;56604;48.652;9.194;2022-07-31T14:38:07;3.07;;;1.63;;
69410;SDS011;56604;48.652;9.194;2022-07-31T14:40:32;1.87;;;1.87;;
69410;SDS011;56604;48.652;9.194;2022-07-31T14:42:59;3.77;;;1.80;;
69410;SDS011;56604;48.652;9.194;2022-07-31T14:45:24;2.13;;;2.03;;
69410;SDS011;56604;48.652;9.194;2022-07-31T14:47:49;1.53;;;1.53;;
69410;SDS011;56604;48.652;9.194;2022-07-31T14:50:15;1.63;;;1.63;;
69410;SDS011;56604;48.652;9.194;2022-07-31T14:52:40;6.23;;;2.20;;
69410;SDS011;56604;48.652;9.194;2022-07-31T14:55:06;2.97;;;2.07;;
69410;SDS011;56604;48.652;9.194;2022-07-31T14:57:32;4.30;;;1.80;;
69410;SDS011;56604;48.652;9.194;2022-07-31T14:59:57;3.00;;;2.00;;
69410;SDS011;56604;48.652;9.194;2022-07-31T15:02:23;4.43;;;2.13;;
69410;SDS011;56604;48.652;9.194;2022-07-31T15:04:51;2.40;;;1.63;;